Tiempo atmosférico en la estación meteorológica de Castello d?Empuries, Girona (4 m.)



Fecha
DESCASC
Temp. máxima en grados centígrados (hora)
DESCASC
Temp. mínima en grados centígrados (hora)
DESCASC
Temp. media en grados centígrados
DESCASC
Racha de viento máxima en m/sg (hora)
DESCASC
Velocidad máxima media en intervalos de 10 minutos(hora)
DESCASC
Precipitaciones diarias en mm
DESCASC
Precipitaciones de 00:00 a 06:00 en mm
DESCASC
Precipitaciones de 06:00 a 12:00 en mm
DESCASC
Precipitaciones de 12:00 a 18:00 en mm
DESCASC
Precipitaciones de 18:00 a 24:00 en mm
DESCASC

Gráficas

Temp. máximas Temp. mínimas Temp. medias Precipitaciones Rachas de viento máximas Velocidades máximas media en intervalos de 10 minutos

Datos horarios

Fecha y hora oficial Temperatura (ºC) Velocidad del viento (km/h) Dirección del viento Racha (km/h) Dirección de racha Precipitación (mm) Presión (hPa) Tendencia (hPa) Humedad (%)
2019-12-10 23:00:00 4.5 4 Oeste 10 Sudoeste 0 -- -- 89
2019-12-10 22:00:00 4.8 4 Oeste 7 Noroeste 0 -- -- 87
2019-12-10 21:00:00 5.3 2 Noroeste 8 Noroeste 0 -- -- 85
2019-12-10 20:00:00 5.9 5 Oeste 8 Nordeste 0 -- -- 78
2019-12-10 19:00:00 8 3 Noroeste 10 Sudoeste 0 -- -- 67
2019-12-10 18:00:00 10.7 5 Norte 13 Norte 0 -- -- 55
2019-12-10 17:00:00 12.8 8 Noroeste 27 Norte 0 -- -- 48
2019-12-10 16:00:00 15 13 Noroeste 24 Norte 0 -- -- 43
2019-12-10 15:00:00 15.9 14 Norte 26 Norte 0 -- -- 42
2019-12-10 14:00:00 16.2 8 Oeste 51 Norte 0 -- -- 42
2019-12-10 13:00:00 15 33 Norte 58 Norte 0 -- -- 41
2019-12-10 12:00:00 14.9 32 Norte 53 Norte 0 -- -- 38
2019-12-10 11:00:00 13.4 33 Norte 55 Norte 0 -- -- 45
2019-12-10 10:00:00 12 30 Noroeste 57 Norte 0 -- -- 53
2019-12-10 09:00:00 10.9 37 Noroeste 60 Noroeste 0 -- -- 56
2019-12-10 08:00:00 10 32 Norte 63 Norte 0 -- -- 59
2019-12-10 07:00:00 10.1 40 Norte 68 Norte 0 -- -- 59
2019-12-10 06:00:00 10.1 38 Norte 76 Norte 0 -- -- 60
2019-12-10 05:00:00 10.2 50 Norte 76 Norte 0 -- -- 59
2019-12-10 04:00:00 10.6 49 Norte 98 Norte 0 -- -- 57
2019-12-10 03:00:00 10.9 47 Noroeste 74 Norte 0 -- -- 56
2019-12-10 02:00:00 11.2 29 Noroeste 55 Noroeste 0 -- -- 56
2019-12-10 01:00:00 11.2 27 Norte 67 Noroeste 0 -- -- 60
2019-12-10 00:00:00 11.3 34 Noroeste 76 Norte 0 -- -- 59
2019-12-09 23:00:00 11.2 42 Noroeste 68 Norte 0 -- -- 59
2019-12-09 22:00:00 10.7 39 Noroeste 75 Noroeste 0 -- -- 62
2019-12-09 21:00:00 11.7 30 Norte 60 Noroeste 0 -- -- 58
2019-12-09 20:00:00 11.5 39 Noroeste 67 Noroeste 0 -- -- 60
2019-12-09 19:00:00 11.8 30 Noroeste 67 Noroeste 0 -- -- 61
2019-12-09 18:00:00 12.7 32 Noroeste 59 Noroeste 0 -- -- 55
2019-12-09 17:00:00 13.2 18 Noroeste 48 Noroeste 0 -- -- 57
2019-12-09 16:00:00 15.7 5 Sudeste 15 Sur 0 -- -- 59
2019-12-09 15:00:00 15.8 9 Sur 26 Norte 0 -- -- 63
2019-12-09 14:00:00 15.3 5 Sur 12 Sur 0 -- -- 68
2019-12-09 13:00:00 15 5 Sudoeste 19 Noroeste 0 -- -- 63
2019-12-09 12:00:00 13.1 9 Oeste 23 Sudoeste 0 -- -- 76
2019-12-09 11:00:00 11.3 4 Noroeste 12 Noroeste 0 -- -- 82
2019-12-09 10:00:00 8.1 4 Nordeste 10 Este 0 -- -- 100
2019-12-09 09:00:00 5.1 5 Sudoeste 8 Oeste 0 -- -- 100
2019-12-09 08:00:00 5.3 4 Sudoeste 13 Oeste 0 -- -- 100
2019-12-09 07:00:00 5.4 4 Noroeste 8 Oeste 0 -- -- 100
2019-12-09 06:00:00 4.7 3 Noroeste 9 Noroeste 0 -- -- 100
2019-12-09 05:00:00 5.3 4 Noroeste 8 Noroeste 0 -- -- 100
2019-12-09 04:00:00 5.8 2 Noroeste 5 Oeste 0 -- -- 100
2019-12-09 03:00:00 7 2 Sudeste 9 Sudoeste 0 -- -- 100
2019-12-09 02:00:00 7.9 4 Sudoeste 8 Oeste 0 -- -- 100
2019-12-09 01:00:00 8.3 4 Oeste 7 Sudoeste 0 -- -- 100
2019-12-09 00:00:00 8.5 0 Calma 8 Noroeste 0 -- -- 100
2019-12-08 23:00:00 8.7 4 Oeste 8 Oeste 0 -- -- 100
2019-12-08 22:00:00 8.6 4 Noroeste 8 Oeste 0 -- -- 100
2019-12-08 21:00:00 8.3 4 Noroeste 8 Noroeste 0 -- -- 100
2019-12-08 20:00:00 8.5 3 Oeste 7 Sudoeste 0 -- -- 100
2019-12-08 19:00:00 9.2 2 Noroeste 4 Noroeste 0 -- -- 96
2019-12-08 18:00:00 10.8 2 Norte 6 Norte 0 -- -- 92
2019-12-08 17:00:00 13 4 Sudeste 10 Sudeste 0 -- -- 85
2019-12-08 16:00:00 15.2 4 Este 10 Sudeste 0 -- -- 77
2019-12-08 15:00:00 16.5 5 Sudeste 10 Sudeste 0 -- -- 73
2019-12-08 14:00:00 15.1 2 Sudoeste 6 Sudoeste 0 -- -- 75
2019-12-08 13:00:00 13.5 2 Noroeste 8 Noroeste 0 -- -- 80
2019-12-08 12:00:00 10.6 0 Calma 6 Oeste 0 -- -- 96
2019-12-08 11:00:00 8.2 0 Calma 8 Noroeste 0 -- -- 100
2019-12-08 10:00:00 5.9 3 Noroeste 10 Noroeste 0 -- -- 100
2019-12-08 09:00:00 4.2 0 Calma 8 Noroeste 0 -- -- 100
2019-12-08 08:00:00 3.4 5 Oeste 8 Oeste 0 -- -- 100
2019-12-08 07:00:00 3.7 5 Noroeste 8 Noroeste 0 -- -- 100
2019-12-08 06:00:00 3.7 6 Oeste 9 Oeste 0 -- -- 100
2019-12-08 05:00:00 3.9 2 Sudoeste 6 Sudoeste 0 -- -- 100
2019-12-08 04:00:00 4.2 4 Norte 6 Norte 0 -- -- 100
2019-12-08 03:00:00 4.6 0 Calma 5 Nordeste 0 -- -- 100
2019-12-08 02:00:00 5.4 4 Sudoeste 7 Oeste 0 -- -- 100
2019-12-08 01:00:00 6.2 5 Oeste 9 Oeste 0 -- -- 100
2019-12-08 00:00:00 6.4 4 Oeste 7 Oeste 0 -- -- 100
2019-12-07 23:00:00 7 6 Oeste 8 Noroeste 0 -- -- 100
2019-12-07 22:00:00 7.4 4 Oeste 7 Noroeste 0 -- -- 99
2019-12-07 21:00:00 8.1 4 Oeste 9 Noroeste 0 -- -- 97
2019-12-07 20:00:00 8.8 5 Oeste 9 Oeste 0 -- -- 96
2019-12-07 19:00:00 10.2 3 Norte 6 Este 0 -- -- 94
2019-12-07 18:00:00 11.4 4 Este 7 Este 0 -- -- 90
2019-12-07 17:00:00 13.4 4 Sudeste 13 Sudeste 0 -- -- 83
2019-12-07 16:00:00 15.7 6 Sudeste 13 Este 0 -- -- 72
2019-12-07 15:00:00 16.5 5 Sudeste 8 Este 0 -- -- 63
2019-12-07 14:00:00 15.7 2 Sudoeste 9 Nordeste 0 -- -- 63
2019-12-07 13:00:00 13.7 4 Nordeste 9 Este 0 -- -- 77
2019-12-07 12:00:00 11.6 0 Calma 5 Norte 0 -- -- 83
2019-12-07 11:00:00 9.4 3 Oeste 9 Oeste 0 -- -- 92
2019-12-07 10:00:00 6.8 6 Oeste 9 Oeste 0 -- -- 100
2019-12-07 09:00:00 4.4 3 Oeste 8 Oeste 0 -- -- 100
2019-12-07 08:00:00 4.2 4 Oeste 10 Norte 0 -- -- 100
2019-12-07 07:00:00 4.3 4 Oeste 9 Oeste 0 -- -- 100
2019-12-07 06:00:00 4.3 5 Noroeste 8 Noroeste 0 -- -- 100
2019-12-07 05:00:00 4.5 4 Noroeste 8 Oeste 0 -- -- 100
2019-12-07 04:00:00 4.6 4 Oeste 7 Sudoeste 0 -- -- 100
2019-12-07 03:00:00 4.9 5 Noroeste 7 Noroeste 0 -- -- 100
2019-12-07 02:00:00 5.2 5 Oeste 7 Sudoeste 0 -- -- 100
2019-12-07 01:00:00 5.5 4 Oeste 7 Oeste 0 -- -- 100
2019-12-07 00:00:00 6.2 3 Oeste 9 Noroeste 0 -- -- 99
2019-12-06 23:00:00 6.5 4 Oeste 8 Oeste 0 -- -- 97
2019-12-06 22:00:00 7.3 4 Oeste 12 Noroeste 0 -- -- 96
2019-12-06 21:00:00 7.9 4 Oeste 5 Noroeste 0 -- -- 96
2019-12-06 20:00:00 8.9 4 Noroeste 7 Sudoeste 0 -- -- 96
2019-12-06 19:00:00 9.8 5 Sudoeste 7 Sudoeste 0 -- -- 92
2019-12-06 18:00:00 11.1 2 Sur 6 Sur 0 -- -- 84
2019-12-06 17:00:00 13.4 6 Sudeste 12 Sudeste 0 -- -- 75
2019-12-06 16:00:00 16.1 7 Sudeste 12 Sudeste 0 -- -- 64
2019-12-06 15:00:00 16.9 7 Sudeste 12 Sur 0 -- -- 59
2019-12-06 14:00:00 16.2 4 Sudeste 10 Este 0 -- -- 57
2019-12-06 13:00:00 15.2 3 Este 9 Sudeste 0 -- -- 60
2019-12-06 12:00:00 13.1 2 Norte 5 Norte 0 -- -- 71
2019-12-06 11:00:00 11.5 3 Noroeste 6 Oeste 0 -- -- 79
2019-12-06 10:00:00 9.4 5 Oeste 9 Noroeste 0 -- -- 89
2019-12-06 09:00:00 7.2 5 Noroeste 8 Oeste 0 -- -- 100
2019-12-06 08:00:00 7.1 3 Sudoeste 8 Sudoeste 0 -- -- 96
2019-12-06 07:00:00 8 0 Calma 8 Oeste 0 -- -- 94
2019-12-06 06:00:00 9.4 4 Sudoeste 7 Oeste 0 -- -- 88
2019-12-06 05:00:00 10.1 4 Oeste 9 Noroeste 0 -- -- 84
2019-12-06 04:00:00 10.3 4 Oeste 9 Noroeste 0 -- -- 82
2019-12-06 03:00:00 10.1 5 Oeste 8 Oeste 0 -- -- 86
2019-12-06 02:00:00 10.4 4 Oeste 9 Oeste 0 -- -- 82
2019-12-06 01:00:00 10.2 5 Oeste 6 Sudoeste 0 -- -- 89
2019-12-06 00:00:00 10.7 2 Noroeste 14 Norte 0 -- -- 85
2019-12-05 23:00:00 10.7 8 Noroeste 13 Noroeste 0 -- -- 82
2019-12-05 22:00:00 9.5 6 Noroeste 9 Noroeste 0 -- -- 92
2019-12-05 21:00:00 10.1 5 Oeste 11 Noroeste 0 -- -- 90
2019-12-05 20:00:00 10.3 4 Oeste 9 Oeste 0.2 -- -- 93
2019-12-05 19:00:00 11.1 3 Norte 22 Norte 0.8 -- -- 88
2019-12-05 18:00:00 12.1 9 Norte 22 Norte 0 -- -- 75
2019-12-05 17:00:00 12.6 14 Norte 22 Norte 0 -- -- 70
2019-12-05 16:00:00 12.5 12 Noroeste 21 Norte 0 -- -- 69
2019-12-05 15:00:00 12.5 11 Norte 21 Norte 0 -- -- 70
2019-12-05 14:00:00 12.1 12 Norte 33 Nordeste 0 -- -- 70
2019-12-05 13:00:00 12 19 Norte 37 Nordeste 0 -- -- 69
2019-12-05 12:00:00 11.3 22 Norte 42 Nordeste 0 -- -- 78
2019-12-05 11:00:00 11.7 17 Norte 31 Norte 0 -- -- 69
2019-12-05 10:00:00 11.7 14 Norte 23 Noroeste 0.2 -- -- 73
2019-12-05 09:00:00 11.4 15 Norte 27 Norte 0 -- -- 78
2019-12-05 08:00:00 11.2 12 Norte 30 Norte 0 -- -- 80
2019-12-05 07:00:00 10.8 14 Norte 30 Norte 0.6 -- -- 86
2019-12-05 06:00:00 10.8 13 Norte 24 Norte 1.4 -- -- 91
2019-12-05 05:00:00 10.9 14 Norte 22 Norte 1.2 -- -- 93
2019-12-05 04:00:00 10.4 13 Norte 25 Norte 1.8 -- -- 97
2019-12-05 03:00:00 10.5 13 Norte 28 Norte 1.4 -- -- 97
2019-12-05 02:00:00 10.5 13 Norte 27 Norte 1.6 -- -- 98
2019-12-05 01:00:00 10.5 12 Norte 22 Norte 3.4 -- -- 100
2019-12-05 00:00:00 10.3 9 Norte 20 Norte 6 -- -- 100
2019-12-04 23:00:00 10.7 4 Noroeste 18 Norte 10.4 -- -- 100
2019-12-04 22:00:00 11 12 Nordeste 25 Norte 5.6 -- -- 100
2019-12-04 21:00:00 10.9 8 Norte 28 Nordeste 5.8 -- -- 99
2019-12-04 20:00:00 10.8 13 Nordeste 28 Nordeste 8.4 -- -- 100
2019-12-04 19:00:00 11.2 14 Nordeste 30 Nordeste 3.4 -- -- 97
2019-12-04 18:00:00 11.7 14 Norte 33 Nordeste 1 -- -- 92
2019-12-04 17:00:00 12.1 15 Nordeste 30 Nordeste 0.6 -- -- 91
2019-12-04 16:00:00 12 16 Nordeste 35 Nordeste 2.4 -- -- 92
2019-12-04 15:00:00 12.5 18 Nordeste 41 Nordeste 0.6 -- -- 88
2019-12-04 14:00:00 13.4 16 Nordeste 37 Nordeste 0 -- -- 82
2019-12-04 13:00:00 13.2 16 Nordeste 33 Nordeste 0 -- -- 81
2019-12-04 12:00:00 13.3 17 Nordeste 45 Nordeste 0 -- -- 82
2019-12-04 11:00:00 13.1 14 Nordeste 32 Nordeste 0 -- -- 84
2019-12-04 10:00:00 12.7 13 Nordeste 29 Nordeste 0 -- -- 86
2019-12-04 09:00:00 12 12 Norte 27 Nordeste 0 -- -- 91
2019-12-04 08:00:00 11.9 9 Norte 27 Nordeste 1 -- -- 92
2019-12-04 07:00:00 12.5 10 Nordeste 22 Nordeste 0.2 -- -- 88
2019-12-04 06:00:00 11.7 10 Norte 30 Nordeste 0 -- -- 88
2019-12-04 05:00:00 11.5 13 Nordeste 28 Nordeste 0 -- -- 89
2019-12-04 04:00:00 11.8 12 Norte 26 Norte 0 -- -- 87
2019-12-04 03:00:00 11.5 10 Norte 22 Nordeste 0 -- -- 88
2019-12-04 02:00:00 11.4 7 Norte 21 Norte 0 -- -- 91
2019-12-04 01:00:00 11.5 10 Norte 22 Norte 0 -- -- 88
2019-12-04 00:00:00 12.1 12 Norte 23 Norte 0 -- -- 80
2019-12-03 23:00:00 12.3 11 Norte 22 Nordeste 0 -- -- 79
2019-12-03 22:00:00 11.7 10 Norte 26 Norte 0 -- -- 78
2019-12-03 21:00:00 11.5 12 Norte 21 Norte 0 -- -- 78
2019-12-03 20:00:00 10.8 6 Noroeste 21 Norte 0 -- -- 77
2019-12-03 19:00:00 10.6 12 Norte 23 Norte 0 -- -- 77
2019-12-03 18:00:00 10.8 15 Norte 28 Nordeste 0 -- -- 73
2019-12-03 17:00:00 10.8 12 Nordeste 28 Nordeste 0 -- -- 68
2019-12-03 16:00:00 11 13 Norte 23 Nordeste 0 -- -- 66
2019-12-03 15:00:00 11.3 13 Norte 25 Nordeste 0 -- -- 66
2019-12-03 14:00:00 11.7 9 Norte 21 Norte 0 -- -- 62
2019-12-03 13:00:00 11.7 12 Norte 22 Norte 0 -- -- 62
2019-12-03 12:00:00 11.5 12 Norte 24 Norte 0 -- -- 59
2019-12-03 11:00:00 10.3 4 Noroeste 12 Noroeste 0 -- -- 66
2019-12-03 10:00:00 8.7 5 Noroeste 18 Norte 0 -- -- 71
2019-12-03 09:00:00 8.3 11 Norte 23 Norte 0 -- -- 67
2019-12-03 08:00:00 7.5 4 Noroeste 27 Norte 0 -- -- 71
2019-12-03 07:00:00 7.6 10 Norte 18 Noroeste 0 -- -- 72
2019-12-03 06:00:00 6.6 7 Norte 18 Norte 0 -- -- 76
2019-12-03 05:00:00 4.2 2 Oeste 5 Oeste 0 -- -- 87
2019-12-03 04:00:00 5.7 4 Sudoeste 8 Oeste 0 -- -- 80
2019-12-03 03:00:00 6.6 4 Oeste 10 Noroeste 0 -- -- 75
2019-12-03 02:00:00 7.2 5 Noroeste 13 Oeste 0 -- -- 75
2019-12-03 01:00:00 7.7 7 Noroeste 12 Noroeste 0 -- -- 73
2019-12-03 00:00:00 7.8 5 Noroeste 13 Norte 0 -- -- 74
2019-12-02 23:00:00 7.6 3 Noroeste 15 Norte 0 -- -- 73
2019-12-02 22:00:00 9.1 6 Noroeste 21 Noroeste 0 -- -- 68
2019-12-02 21:00:00 9.3 8 Noroeste 17 Noroeste 0 -- -- 67
2019-12-02 20:00:00 9.6 6 Noroeste 15 Noroeste 0 -- -- 66
2019-12-02 19:00:00 11 9 Noroeste 24 Noroeste 0 -- -- 61
2019-12-02 18:00:00 11.6 10 Noroeste 23 Noroeste 0 -- -- 60
2019-12-02 17:00:00 13 12 Noroeste 24 Noroeste 0 -- -- 57
2019-12-02 16:00:00 14.7 9 Norte 23 Norte 0 -- -- 53
2019-12-02 15:00:00 15.4 15 Norte 37 Noroeste 0 -- -- 50
2019-12-02 14:00:00 15.1 21 Norte 32 Norte 0 -- -- 50
2019-12-02 13:00:00 15.3 17 Norte 30 Norte 0 -- -- 51
2019-12-02 12:00:00 15.1 16 Norte 30 Norte 0 -- -- 51
2019-12-02 11:00:00 14.1 15 Norte 31 Noroeste 0 -- -- 54
2019-12-02 10:00:00 13.2 20 Norte 32 Norte 0 -- -- 57
2019-12-02 09:00:00 11.5 14 Norte 22 Norte 0 -- -- 65
2019-12-02 08:00:00 10.4 12 Noroeste 24 Noroeste 0 -- -- 67
2019-12-02 07:00:00 10.4 18 Norte 28 Norte 0 -- -- 68
2019-12-02 06:00:00 8.8 7 Noroeste 18 Norte 0 -- -- 77
2019-12-02 05:00:00 7.2 9 Noroeste 17 Noroeste 0 -- -- 90
2019-12-02 04:00:00 4.9 4 Sudoeste 9 Sudoeste 0 -- -- 100
2019-12-02 03:00:00 4.8 3 Noroeste 7 Noroeste 0 -- -- 100
2019-12-02 02:00:00 4.9 4 Sudoeste 7 Sudoeste 0 -- -- 100
2019-12-02 01:00:00 5.2 2 Sudoeste 6 Sudoeste 0 -- -- 100
2019-12-02 00:00:00 5.7 3 Sudoeste 6 Sudoeste 0 -- -- 100
2019-12-01 23:00:00 6.6 3 Sudoeste 6 Oeste 0 -- -- 100
2019-12-01 22:00:00 7.3 3 Oeste 6 Noroeste 0 -- -- 99
2019-12-01 21:00:00 7.9 0 Calma 6 Sudoeste 0 -- -- 97
2019-12-01 20:00:00 9 2 Sudoeste 6 Sudoeste 0 -- -- 96
2019-12-01 19:00:00 9.8 2 Sudoeste 4 Oeste 0 -- -- 91
2019-12-01 18:00:00 11.4 3 Nordeste 5 Nordeste 0 -- -- 85
2019-12-01 17:00:00 13.7 3 Nordeste 10 Nordeste 0 -- -- 79
2019-12-01 16:00:00 15 3 Norte 9 Este 0 -- -- 71
2019-12-01 15:00:00 15.3 5 Este 12 Este 0 -- -- 72
2019-12-01 14:00:00 15 4 Este 8 Nordeste 0 -- -- 75
2019-12-01 13:00:00 13.6 3 Nordeste 6 Norte 0 -- -- 86
2019-12-01 12:00:00 12.9 2 Norte 10 Noroeste 0 -- -- 90
2019-12-01 11:00:00 12.1 3 Oeste 8 Oeste 0 -- -- 97
2019-12-01 10:00:00 10.8 0 Calma 6 Noroeste 0 -- -- 100
2019-12-01 09:00:00 10.6 2 Noroeste 10 Noroeste 0 -- -- 99
2019-12-01 08:00:00 10.9 0 Calma 4 Sur 0.2 -- -- 100
2019-12-01 07:00:00 11.2 0 Calma 7 Oeste 0.2 -- -- 99
2019-12-01 06:00:00 11.2 4 Oeste 11 Oeste 0 -- -- 99
2019-12-01 05:00:00 11.3 6 Noroeste 17 Noroeste 0 -- -- 99
2019-12-01 04:00:00 11.6 6 Noroeste 14 Noroeste 0 -- -- 99
2019-12-01 03:00:00 11.1 5 Noroeste 9 Noroeste 0 -- -- 99
2019-12-01 02:00:00 11 3 Oeste 7 Oeste 0 -- -- 100
2019-12-01 01:00:00 11.1 2 Sudoeste 7 Sudoeste 0 -- -- 100
2019-12-01 00:00:00 10.8 3 Sudoeste 7 Sudoeste 0 -- -- 98
2019-11-30 23:00:00 11.6 2 Noroeste 8 Norte 0 -- -- 99
2019-11-30 22:00:00 10.7 4 Noroeste 7 Norte 0 -- -- 100
2019-11-30 21:00:00 11 3 Noroeste 5 Noroeste 0 -- -- 97
2019-11-30 20:00:00 11.7 0 Calma 4 Noroeste 0 -- -- 97
2019-11-30 19:00:00 12.7 0 Calma 3 Sudoeste 0 -- -- 94
2019-11-30 18:00:00 14 2 Sudoeste 5 Sudoeste 0 -- -- 91
2019-11-30 17:00:00 15.4 2 Noroeste 5 Este 0 -- -- 87
2019-11-30 16:00:00 16.3 5 Este 11 Este 0 -- -- 84
2019-11-30 15:00:00 17.5 4 Este 14 Sudeste 0 -- -- 80
2019-11-30 14:00:00 17.5 8 Sudeste 17 Sudeste 0 -- -- 84
2019-11-30 13:00:00 16.6 4 Este 12 Este 0 -- -- 82
2019-11-30 12:00:00 14.5 3 Norte 8 Noroeste 0 -- -- 89
2019-11-30 11:00:00 12.8 5 Noroeste 9 Noroeste 0 -- -- 92
2019-11-30 10:00:00 10.6 3 Noroeste 6 Noroeste 0 -- -- 99
2019-11-30 09:00:00 9.8 0 Calma 6 Noroeste 0 -- -- 100
2019-11-30 08:00:00 9.4 2 Noroeste 5 Noroeste 0 -- -- 100
2019-11-30 07:00:00 9.5 2 Sudoeste 4 Oeste 0 -- -- 100
2019-11-30 06:00:00 10.1 0 Calma 4 Sudeste 0 -- -- 98
2019-11-30 05:00:00 11.1 0 Calma 5 Sudoeste 0 -- -- 99
2019-11-30 04:00:00 11.2 3 Sudoeste 6 Sudoeste 0 -- -- 98
2019-11-30 03:00:00 11.6 0 Calma 5 Sudoeste 0 -- -- 98
2019-11-30 02:00:00 11.3 3 Sudoeste 5 Sudoeste 0 -- -- 98
2019-11-30 01:00:00 11.6 0 Calma 4 Noroeste 0 -- -- 95
2019-11-30 00:00:00 12.2 2 Norte 4 Norte 0 -- -- 96
2019-11-29 23:00:00 12.6 0 Calma 6 Oeste 0 -- -- 94
2019-11-29 22:00:00 12.4 2 Sudoeste 4 Nordeste 0 -- -- 94
2019-11-29 21:00:00 12.5 2 Norte 5 Nordeste 0 -- -- 93
2019-11-29 20:00:00 12.5 3 Norte 4 Norte 0 -- -- 93
2019-11-29 19:00:00 13.6 0 Calma 2 Noroeste 0 -- -- 88
2019-11-29 18:00:00 14.3 0 Calma 6 Sur 0 -- -- 85
2019-11-29 17:00:00 15.1 3 Sur 11 Sudeste 0 -- -- 81
2019-11-29 16:00:00 15.9 5 Sudeste 11 Sudeste 0 -- -- 81
2019-11-29 15:00:00 16.9 7 Sudeste 17 Sudeste 0 -- -- 74
2019-11-29 14:00:00 18.5 6 Sudeste 14 Sudeste 0 -- -- 70
2019-11-29 13:00:00 18 5 Sur 10 Sudeste 0 -- -- 67
2019-11-29 12:00:00 15.5 3 Sudeste 8 Oeste 0 -- -- 76
2019-11-29 11:00:00 13.5 2 Sur 5 Sudeste 0 -- -- 85
2019-11-29 10:00:00 10.3 0 Calma 9 Sudoeste 0 -- -- 95
2019-11-29 09:00:00 8.3 4 Oeste 8 Oeste 0 -- -- 99
2019-11-29 08:00:00 8 2 Noroeste 7 Oeste 0 -- -- 99
2019-11-29 07:00:00 8.3 2 Noroeste 8 Oeste 0 -- -- 97
2019-11-29 06:00:00 8.3 3 Oeste 10 Oeste 0 -- -- 99
2019-11-29 05:00:00 8.2 0 Calma 7 Noroeste 0 -- -- 99
2019-11-29 04:00:00 8 3 Oeste 6 Sudoeste 0 -- -- 98
2019-11-29 03:00:00 8.8 4 Sudoeste 6 Sudoeste 0 -- -- 97
2019-11-29 02:00:00 9.7 3 Oeste 7 Sudoeste 0 -- -- 94
2019-11-29 01:00:00 9.9 3 Oeste 8 Sudoeste 0 -- -- 95
2019-11-29 00:00:00 10.2 0 Calma 11 Noroeste 0 -- -- 94
2019-11-28 23:00:00 10.4 7 Noroeste 13 Noroeste 0 -- -- 96
2019-11-28 22:00:00 10.4 4 Noroeste 6 Oeste 0 -- -- 96
2019-11-28 21:00:00 10.9 3 Noroeste 9 Norte 0 -- -- 97
2019-11-28 20:00:00 11 0 Calma 4 Noroeste 0 -- -- 97
2019-11-28 19:00:00 11.3 3 Noroeste 5 Noroeste 0 -- -- 94
2019-11-28 18:00:00 12.1 0 Calma 7 Sudeste 0 -- -- 90
2019-11-28 17:00:00 13.8 3 Sudeste 12 Este 0 -- -- 84
2019-11-28 16:00:00 15.3 6 Este 14 Este 0 -- -- 76
2019-11-28 15:00:00 17.7 5 Este 15 Sudeste 0 -- -- 65
2019-11-28 14:00:00 16.9 2 Este 9 Nordeste 0 -- -- 64
2019-11-28 13:00:00 16.6 3 Sudeste 6 Sudeste 0 -- -- 66
2019-11-28 12:00:00 14.9 3 Sudoeste 8 Sudoeste 0 -- -- 67
2019-11-28 11:00:00 12.6 0 Calma 5 Nordeste 0 -- -- 85
2019-11-28 10:00:00 9.6 2 Norte 12 Noroeste 0 -- -- 96
2019-11-28 09:00:00 7.5 3 Noroeste 6 Noroeste 0 -- -- 100
2019-11-28 08:00:00 6.7 3 Nordeste 8 Sudoeste 0 -- -- 100
2019-11-28 07:00:00 6.9 5 Sudoeste 9 Sudoeste 0 -- -- 100
2019-11-28 06:00:00 7.4 0 Calma 6 Oeste 0 -- -- 100
2019-11-28 05:00:00 8.3 3 Sudoeste 7 Sudoeste 0 -- -- 100
2019-11-28 04:00:00 9.5 2 Sudeste 9 Noroeste 0 -- -- 98
2019-11-28 03:00:00 10.3 3 Noroeste 8 Oeste 0 -- -- 99
2019-11-28 02:00:00 10 4 Oeste 8 Oeste 0 -- -- 99
2019-11-28 01:00:00 10.3 3 Oeste 8 Noroeste 0 -- -- 99
2019-11-28 00:00:00 10.8 3 Oeste 5 Oeste 0 -- -- 96
2019-11-27 23:00:00 11.7 2 Oeste 10 Oeste 0 -- -- 96
2019-11-27 22:00:00 11.8 3 Oeste 5 Oeste 0 -- -- 96
2019-11-27 21:00:00 11.9 0 Calma 4 Oeste 0 -- -- 94
2019-11-27 20:00:00 12.4 0 Calma 4 Noroeste 0 -- -- 92
2019-11-27 19:00:00 12.9 3 Norte 5 Norte 0 -- -- 91
2019-11-27 18:00:00 13.1 3 Nordeste 5 Nordeste 0 -- -- 86
2019-11-27 17:00:00 15.1 0 Calma 11 Sudeste 0 -- -- 80
2019-11-27 16:00:00 16.3 7 Sudeste 16 Sudeste 0 -- -- 76
2019-11-27 15:00:00 17.8 9 Sur 16 Sudeste 0 -- -- 69
2019-11-27 14:00:00 18.2 5 Sur 14 Sur 0 -- -- 70
2019-11-27 06:00:00 -- -- -- -- -- -- -- -- --
2019-11-27 05:00:00 -- -- -- -- -- -- -- -- --
2019-11-27 04:00:00 -- -- -- -- -- -- -- -- --
2019-11-27 03:00:00 -- -- -- -- -- -- -- -- --
2019-11-27 02:00:00 14.5 7 Sur 15 Sudoeste 0 -- -- 79
2019-11-27 01:00:00 11.2 4 Oeste 10 Sudoeste 0 -- -- 90
2019-11-27 00:00:00 8.9 3 Norte 10 Norte 0 -- -- 98
2019-11-26 23:00:00 8.6 2 Norte 6 Noroeste 0 -- -- 99
2019-11-26 22:00:00 8.5 4 Oeste 6 Noroeste 0 -- -- 99
2019-11-26 21:00:00 8.9 2 Oeste 6 Noroeste 0 -- -- 98
2019-11-26 20:00:00 9.2 3 Oeste 7 Oeste 0 -- -- 98
2019-11-26 19:00:00 9.9 0 Calma 6 Noroeste 0 -- -- 95
2019-11-26 18:00:00 11.4 0 Calma 5 Este 0 -- -- 91
2019-11-26 17:00:00 13.5 2 Sudeste 5 Este 0 -- -- 82
2019-11-26 16:00:00 15.3 2 Este 8 Sudeste 0 -- -- 76
2019-11-26 15:00:00 16.5 4 Este 10 Este 0 -- -- 66
2019-11-26 14:00:00 15.9 4 Sudeste 8 Sudeste 0 -- -- 68
2019-11-26 13:00:00 14.7 3 Sudeste 7 Noroeste 0 -- -- 74
2019-11-26 12:00:00 12.2 2 Sudoeste 5 Oeste 0 -- -- 79
2019-11-26 11:00:00 9.6 0 Calma 6 Sudoeste 0 -- -- 94
2019-11-26 10:00:00 6.8 4 Sudoeste 8 Sudoeste 0 -- -- 100
2019-11-26 09:00:00 4 2 Noroeste 4 Noroeste 0 -- -- 100
2019-11-26 08:00:00 3.5 2 Noroeste 6 Noroeste 0 -- -- 100
2019-11-26 07:00:00 4 2 Oeste 5 Sudoeste 0 -- -- 100
2019-11-26 06:00:00 4.5 3 Oeste 9 Oeste 0 -- -- 100
2019-11-26 05:00:00 4.6 0 Calma -- -- 0 -- -- 100
2019-11-26 04:00:00 5 0 Calma -- -- 0 -- -- 100
2019-11-26 03:00:00 5.6 0 Calma 0 Calma 0 -- -- 100
2019-11-26 02:00:00 6.3 0 Calma 6 Oeste 0 -- -- 100
2019-11-26 01:00:00 6.9 0 Calma 10 Noroeste 0 -- -- 99
2019-11-26 00:00:00 7.2 4 Oeste 9 Noroeste 0 -- -- 100
2019-11-25 23:00:00 7.2 3 Nordeste 7 Nordeste 0 -- -- 99
2019-11-25 22:00:00 8.2 2 Oeste 6 Oeste 0 -- -- 97
2019-11-25 21:00:00 9.2 3 Oeste 12 Oeste 0 -- -- 96
2019-11-25 20:00:00 9.2 5 Oeste 9 Oeste 0 -- -- 93
2019-11-25 19:00:00 10.4 0 Calma 6 Sudeste 0 -- -- 89
2019-11-25 18:00:00 12.2 2 Sudoeste 9 Sudoeste 0 -- -- 86
2019-11-25 17:00:00 14.3 4 Sudeste 12 Sudeste 0 -- -- 80
2019-11-25 16:00:00 16 4 Este 11 Sudeste 0 -- -- 73
2019-11-25 15:00:00 17.8 3 Sudeste 8 Sudeste 0 -- -- 64
2019-11-25 14:00:00 17 4 Sudeste 9 Sudeste 0 -- -- 66
2019-11-25 13:00:00 15.4 0 Calma 9 Oeste 0 -- -- 65
2019-11-25 12:00:00 13.1 5 Oeste 9 Oeste 0 -- -- 72
2019-11-25 11:00:00 10.9 3 Sudoeste 8 Sudoeste 0 -- -- 81
2019-11-25 10:00:00 8.4 3 Noroeste 6 Noroeste 0 -- -- 100
2019-11-25 09:00:00 5.9 0 Calma 9 Oeste 0 -- -- 100
2019-11-25 08:00:00 4.5 5 Noroeste 10 Oeste 0 -- -- 100
2019-11-25 07:00:00 4.2 4 Sudoeste 7 Sudoeste 0 -- -- 100
2019-11-25 06:00:00 4.5 3 Noroeste 11 Sudoeste 0 -- -- 100
2019-11-25 05:00:00 5.1 7 Oeste 12 Oeste 0 -- -- 100
2019-11-25 04:00:00 5.4 4 Oeste 6 Oeste 0 -- -- 100
2019-11-25 03:00:00 5.5 3 Oeste 12 Sudoeste 0 -- -- 100
2019-11-25 02:00:00 5.3 3 Nordeste 8 Oeste 0 -- -- 98
2019-11-25 01:00:00 5.8 5 Oeste 9 Sudoeste 0 -- -- 95
2019-11-25 00:00:00 6.3 3 Oeste 8 Oeste 0 -- -- 90
2019-11-24 23:00:00 7 3 Noroeste 9 Oeste 0 -- -- 85
2019-11-24 22:00:00 8 3 Norte 8 Nordeste 0 -- -- 78
2019-11-24 21:00:00 9.7 0 Calma 8 Noroeste 0 -- -- 70
2019-11-24 20:00:00 11.7 6 Oeste 20 Noroeste 0 -- -- 61
2019-11-24 19:00:00 13.1 12 Noroeste 28 Noroeste 0 -- -- 53
2019-11-24 18:00:00 13.2 17 Norte 30 Noroeste 0 -- -- 55
2019-11-24 17:00:00 14.4 16 Noroeste 36 Norte 0 -- -- 52
2019-11-24 16:00:00 15.8 17 Noroeste 38 Norte 0 -- -- 51
2019-11-24 15:00:00 16.4 23 Norte 44 Norte 0 -- -- 52
2019-11-24 14:00:00 16.4 27 Norte 44 Norte 0 -- -- 50
2019-11-24 13:00:00 15.9 19 Norte 38 Norte 0 -- -- 54
2019-11-24 12:00:00 15.8 19 Noroeste 35 Norte 0 -- -- 51
2019-11-24 11:00:00 14.7 17 Noroeste 38 Noroeste 0 -- -- 52
2019-11-24 10:00:00 13.7 17 Noroeste 34 Noroeste 0 -- -- 54
2019-11-24 09:00:00 12.8 14 Noroeste 29 Oeste 0 -- -- 55
2019-11-24 08:00:00 11.9 12 Noroeste 25 Norte 0 -- -- 58
2019-11-24 07:00:00 12.2 12 Noroeste 31 Oeste 0 -- -- 56
2019-11-24 06:00:00 12.9 16 Noroeste 46 Norte 0 -- -- 52
2019-11-24 05:00:00 13.2 25 Noroeste 47 Noroeste 0 -- -- 53
2019-11-24 04:00:00 13.4 22 Noroeste 50 Noroeste 0 -- -- 50
2019-11-24 03:00:00 13.9 26 Noroeste 50 Norte 0 -- -- 48
2019-11-24 02:00:00 13.6 19 Noroeste 51 Norte 0 -- -- 47
2019-11-24 01:00:00 13.4 21 Noroeste 51 Oeste 0 -- -- 48
2019-11-24 00:00:00 13.3 31 Noroeste 58 Norte 0 -- -- 55
2019-11-23 23:00:00 13.8 21 Noroeste 43 Norte 0 -- -- 51
2019-11-23 22:00:00 12.8 7 Oeste 25 Noroeste 0 -- -- 64
2019-11-23 21:00:00 13 4 Noroeste 14 Noroeste 0 -- -- 61
2019-11-23 20:00:00 13.3 9 Noroeste 20 Noroeste 0 -- -- 61
2019-11-23 19:00:00 13.2 8 Noroeste 32 Noroeste 0 -- -- 64
2019-11-23 18:00:00 14.1 14 Noroeste 30 Noroeste 0 -- -- 61
2019-11-23 17:00:00 14.4 17 Norte 33 Noroeste 0 -- -- 65
2019-11-23 16:00:00 15.5 17 Noroeste 33 Norte 0 -- -- 66
2019-11-23 15:00:00 16.5 12 Norte 27 Nordeste 0 -- -- 66
2019-11-23 14:00:00 16.9 5 Este 14 Este 0 -- -- 69
2019-11-23 13:00:00 16 5 Este 11 Este 0 -- -- 76
2019-11-23 12:00:00 15.7 8 Sudoeste 21 Sudoeste 0 -- -- 68
2019-11-23 11:00:00 14.7 8 Oeste 17 Sudoeste 0 -- -- 73
2019-11-23 10:00:00 13.1 5 Sudoeste 15 Sudoeste 0 -- -- 82
2019-11-23 09:00:00 11.2 7 Sur 23 Sudoeste 0 -- -- 92
2019-11-23 08:00:00 10.4 8 Sur 17 Sur 0.2 -- -- 96
2019-11-23 07:00:00 11.5 8 Sur 16 Sudoeste 0 -- -- 98
2019-11-23 06:00:00 12.8 6 Sur 21 Sur 0 -- -- 100
2019-11-23 05:00:00 13.3 11 Sur 23 Sur 0 -- -- 100
2019-11-23 04:00:00 14.2 8 Sur 23 Sudoeste 1 -- -- 100
2019-11-23 03:00:00 14.6 13 Sudeste 27 Sur 0 -- -- 100
2019-11-23 02:00:00 14.5 17 Sudeste 31 Sur 0.2 -- -- 100
2019-11-23 01:00:00 14.3 14 Sur 29 Sur 0.6 -- -- 100
2019-11-23 00:00:00 14.1 13 Sur 22 Este 0.2 -- -- 100
2019-11-22 23:00:00 14.2 13 Sudeste 25 Sur 4.4 -- -- 100
2019-11-22 22:00:00 14.3 12 Sur 39 Sudeste 2 -- -- 100
2019-11-22 21:00:00 14.3 12 Sur 27 Sudeste 3.4 -- -- 100
2019-11-22 20:00:00 14.5 14 Sudeste 26 Sudeste 0 -- -- 96
2019-11-22 19:00:00 14.1 12 Sudeste 22 Sur 0 -- -- 90
2019-11-22 18:00:00 14.2 12 Sudeste 22 Sudeste 0 -- -- 86
2019-11-22 17:00:00 14.8 10 Sur 31 Sur 0 -- -- 81
2019-11-22 16:00:00 15.7 17 Sur 30 Sudeste 0 -- -- 78
2019-11-22 15:00:00 16.1 13 Sur 30 Sur 0 -- -- 81
2019-11-22 14:00:00 15.8 15 Sur 28 Sur 0 -- -- 82
2019-11-22 13:00:00 13.8 7 Sur 13 Sur 0 -- -- 100
2019-11-22 12:00:00 10.6 4 Sur 10 Sudoeste 0.4 -- -- 98
2019-11-22 11:00:00 8.9 0 Calma 0 Calma 0 -- -- 91
2019-11-22 10:00:00 6.5 0 Calma 9 Noroeste 0 -- -- 99
2019-11-22 09:00:00 4.7 0 Calma 5 Oeste 0 -- -- 100
2019-11-22 08:00:00 3.3 0 Calma 6 Noroeste 0 -- -- 100
2019-11-22 07:00:00 3 4 Oeste 9 Oeste 0 -- -- 100
2019-11-22 06:00:00 2.8 4 Noroeste 9 Noroeste 0 -- -- 100
2019-11-22 05:00:00 2.5 0 Calma 6 Noroeste 0 -- -- 100
2019-11-22 04:00:00 2.9 0 Calma 8 Noroeste 0 -- -- 100
2019-11-22 03:00:00 3.3 5 Noroeste 8 Norte 0 -- -- 100
2019-11-22 02:00:00 3.4 0 Calma 6 Noroeste 0 -- -- 99
2019-11-22 01:00:00 3.8 3 Oeste 7 Oeste 0 -- -- 99
2019-11-22 00:00:00 4.4 0 Calma 8 Norte 0 -- -- 97
2019-11-21 23:00:00 5 0 Calma 7 Oeste 0 -- -- 95
2019-11-21 22:00:00 5.7 0 Calma 6 Nordeste 0 -- -- 94
2019-11-21 21:00:00 6.6 2 Noroeste 6 Oeste 0 -- -- 89
2019-11-21 20:00:00 7.6 3 Este 9 Nordeste 0 -- -- 84
2019-11-21 19:00:00 9.4 4 Sudoeste 10 Sur 0 -- -- 77
2019-11-21 18:00:00 11.4 6 Sur 14 Sur 0 -- -- 72
2019-11-21 17:00:00 13.8 8 Sudeste 17 Sudeste 0 -- -- 66
2019-11-21 16:00:00 16.5 8 Sur 21 Sudeste 0 -- -- 56
2019-11-21 15:00:00 17.5 10 Sudeste 24 Sur 0 -- -- 52
2019-11-21 14:00:00 16.6 13 Sur 22 Sur 0 -- -- 57
2019-11-21 13:00:00 14.2 2 Oeste 10 Sudoeste 0 -- -- 66
2019-11-21 12:00:00 11.5 4 Norte 8 Norte 0 -- -- 75
2019-11-21 11:00:00 9 2 Noroeste 6 Oeste 0 -- -- 84
2019-11-21 10:00:00 4.4 3 Noroeste 7 Noroeste 0 -- -- 100
2019-11-21 09:00:00 3 4 Oeste 9 Oeste 0 -- -- 100
2019-11-21 08:00:00 -- -- -- -- -- -- -- -- --
2019-11-21 07:00:00 -- -- -- -- -- -- -- -- --
2019-11-21 06:00:00 -- -- -- -- -- -- -- -- --
2019-11-21 05:00:00 -- -- -- -- -- -- -- -- --
2019-11-21 04:00:00 -- -- -- -- -- -- -- -- --
2019-11-21 03:00:00 -- -- -- -- -- -- -- -- --
2019-11-21 02:00:00 -- -- -- -- -- -- -- -- --
2019-11-21 01:00:00 -- -- -- -- -- -- -- -- --
2019-11-21 00:00:00 -- -- -- -- -- -- -- -- --
2019-11-20 23:00:00 -- -- -- -- -- -- -- -- --
2019-11-20 22:00:00 -- -- -- -- -- -- -- -- --
2019-11-20 21:00:00 9 4 Sur 15 Sudeste 0 -- -- 84
2019-11-20 20:00:00 9.5 7 Sur 22 Sudeste 0 -- -- 82
2019-11-20 19:00:00 9.6 9 Sur 21 Sudeste 0 -- -- 82
2019-11-20 18:00:00 10.7 13 Sur 24 Sur 0 -- -- 78
2019-11-20 17:00:00 11.9 12 Sur 26 Sudeste 0 -- -- 71
2019-11-20 16:00:00 14.1 14 Sur 32 Sur 0 -- -- 58
2019-11-20 15:00:00 15.9 12 Sur 28 Sur 0 -- -- 55
2019-11-20 14:00:00 15.2 11 Sur 26 Sudoeste 0 -- -- 54
2019-11-20 13:00:00 12.8 7 Sudeste 16 Sur 0 -- -- 67
2019-11-20 12:00:00 8.9 0 Calma 5 Sudeste 0 -- -- 74
2019-11-20 11:00:00 6 3 Noroeste 8 Oeste 0 -- -- 86
2019-11-20 10:00:00 2.9 3 Noroeste 6 Noroeste 0 -- -- 100
2019-11-20 09:00:00 0.5 0 Calma 5 Noroeste 0 -- -- 100
2019-11-20 08:00:00 -0.8 0 Calma -- -- 0 -- -- 100
2019-11-20 07:00:00 -0.2 0 Calma -- -- 0 -- -- 100
2019-11-20 06:00:00 0.6 0 Calma 11 Sudoeste 0 -- -- 100
2019-11-20 05:00:00 0.5 4 Oeste 8 Oeste 0 -- -- 100
2019-11-20 04:00:00 1 3 Oeste 7 Oeste 0 -- -- 99
2019-11-20 03:00:00 1.4 4 Oeste 6 Oeste 0 -- -- 98
2019-11-20 02:00:00 1.7 3 Noroeste 6 Oeste 0 -- -- 97
2019-11-20 01:00:00 2.1 4 Oeste 6 Oeste 0 -- -- 94
2019-11-20 00:00:00 2.8 3 Oeste 7 Oeste 0 -- -- 91
2019-11-19 23:00:00 3.7 4 Noroeste 7 Noroeste 0 -- -- 88
2019-11-19 22:00:00 4.4 4 Oeste 8 Noroeste 0 -- -- 84
2019-11-19 21:00:00 5.2 5 Noroeste 10 Oeste 0 -- -- 81
2019-11-19 20:00:00 5.6 4 Oeste 10 Sudoeste 0 -- -- 80
2019-11-19 19:00:00 6.3 5 Sudoeste 9 Sudoeste 0 -- -- 77
2019-11-19 18:00:00 8.3 2 Noroeste 5 Noroeste 0 -- -- 69
2019-11-19 17:00:00 11.1 2 Norte 14 Norte 0 -- -- 60
2019-11-19 16:00:00 13 9 Norte 18 Norte 0 -- -- 51
2019-11-19 15:00:00 12.4 10 Norte 24 Norte 0 -- -- 52
2019-11-19 14:00:00 13.8 14 Norte 27 Norte 0 -- -- 47
2019-11-19 13:00:00 12.9 13 Norte 30 Noroeste 0 -- -- 47
2019-11-19 12:00:00 12.7 18 Noroeste 34 Noroeste 0 -- -- 46
2019-11-19 11:00:00 11.8 15 Noroeste 27 Norte 0 -- -- 48
2019-11-19 10:00:00 9 9 Oeste 18 Oeste 0 -- -- 55
2019-11-19 09:00:00 6.7 7 Oeste 30 Noroeste 0 -- -- 66
2019-11-19 08:00:00 2.8 6 Oeste 14 Oeste 0 -- -- 79
2019-11-19 07:00:00 3.2 4 Oeste 10 Oeste 0 -- -- 77
2019-11-19 06:00:00 4.8 4 Norte 12 Oeste 0 -- -- 71
2019-11-19 05:00:00 4.1 2 Sudoeste 11 Oeste 0 -- -- 75
2019-11-19 04:00:00 5.6 3 Oeste 13 Noroeste 0 -- -- 68
2019-11-19 03:00:00 5.9 6 Oeste 17 Sudoeste 0 -- -- 67
2019-11-19 02:00:00 5.3 3 Sudoeste 13 Noroeste 0 -- -- 70
2019-11-19 01:00:00 6.3 8 Norte 21 Norte 0 -- -- 65
2019-11-19 00:00:00 7.5 12 Noroeste 30 Norte 0 -- -- 61
2019-11-18 23:00:00 7.8 23 Norte 37 Norte 0 -- -- 61
2019-11-18 22:00:00 8.1 19 Norte 37 Norte 0 -- -- 60
2019-11-18 21:00:00 7.9 18 Noroeste 35 Norte 0 -- -- 63
2019-11-18 20:00:00 8 19 Norte 37 Noroeste 0 -- -- 63
2019-11-18 19:00:00 8.4 18 Noroeste 36 Noroeste 0 -- -- 59
2019-11-18 18:00:00 8.2 13 Noroeste 29 Norte 0 -- -- 60
2019-11-18 17:00:00 9.5 12 Norte 36 Norte 0 -- -- 59
2019-11-18 16:00:00 11.3 16 Noroeste 34 Noroeste 0 -- -- 53
2019-11-18 15:00:00 12.1 15 Norte 39 Norte 0 -- -- 55
2019-11-18 14:00:00 11.6 25 Norte 40 Noroeste 0 -- -- 57
2019-11-18 13:00:00 10.9 19 Noroeste 39 Noroeste 0 -- -- 65
2019-11-18 12:00:00 11.7 23 Norte 40 Norte 0 -- -- 66
2019-11-18 11:00:00 10.7 17 Norte 32 Norte 0 -- -- 74
2019-11-18 10:00:00 10 18 Norte 34 Norte 0 -- -- 81
2019-11-18 09:00:00 9.4 11 Norte 20 Norte 0 -- -- 86
2019-11-18 08:00:00 8.1 9 Noroeste 17 Noroeste 0 -- -- 88
2019-11-18 07:00:00 7.2 7 Noroeste 13 Noroeste 0 -- -- 92
2019-11-18 06:00:00 7.9 7 Noroeste 14 Noroeste 0 -- -- 92
2019-11-18 05:00:00 8.4 9 Norte 19 Noroeste 0 -- -- 92
2019-11-18 04:00:00 7.4 5 Noroeste 9 Noroeste 0 -- -- 98
2019-11-18 03:00:00 6.4 3 Oeste 10 Oeste 0 -- -- 97
2019-11-18 02:00:00 5.6 4 Oeste 12 Oeste 0 -- -- 98
2019-11-18 01:00:00 5.2 6 Oeste 10 Oeste 0 -- -- 98
2019-11-18 00:00:00 5.5 4 Oeste 9 Oeste 0 -- -- 97
2019-11-17 23:00:00 5.9 4 Oeste 8 Oeste 0 -- -- 97
2019-11-17 22:00:00 6.1 4 Oeste 9 Noroeste 0 -- -- 98
2019-11-17 21:00:00 6.5 4 Noroeste 8 Noroeste 0 -- -- 95
2019-11-17 20:00:00 7.8 0 Calma -- -- 0 -- -- 90
2019-11-17 19:00:00 9.1 0 Calma 6 Sur 0 -- -- 87
2019-11-17 18:00:00 9.9 3 Sur 9 Sur 0 -- -- 82
2019-11-17 17:00:00 10.7 0 Calma 6 Este 0 -- -- 79
2019-11-17 16:00:00 11.9 0 Calma 7 Este 0 -- -- 74
2019-11-17 15:00:00 12.9 3 Este 10 Este 0 -- -- 61
2019-11-17 14:00:00 12.3 3 Noroeste 9 Oeste 0 -- -- 59
2019-11-17 13:00:00 11.5 4 Oeste 10 Noroeste 0 -- -- 65
2019-11-17 12:00:00 9.3 3 Oeste 10 Sudoeste 0 -- -- 79
2019-11-17 11:00:00 7.6 5 Sudoeste 13 Sudoeste 0 -- -- 89
2019-11-17 10:00:00 4.5 6 Oeste 10 Oeste 0 -- -- 100
2019-11-17 09:00:00 2.5 3 Noroeste 9 Noroeste 0 -- -- 100
2019-11-17 08:00:00 1.5 3 Oeste 10 Oeste 0 -- -- 100
2019-11-17 07:00:00 1.8 0 Calma 9 Noroeste 0 -- -- 100
2019-11-17 06:00:00 1.7 3 Oeste 7 Oeste 0 -- -- 100
2019-11-17 05:00:00 2.4 2 Sudoeste 7 Sudeste 0 -- -- 100
2019-11-17 04:00:00 2.3 5 Norte 8 Nordeste 0 -- -- 99
2019-11-17 03:00:00 2.7 4 Sudoeste 9 Oeste 0 -- -- 98
2019-11-17 02:00:00 3.5 3 Norte 11 Oeste 0 -- -- 96
2019-11-17 01:00:00 4 6 Oeste 11 Oeste 0 -- -- 97
2019-11-17 00:00:00 4.3 3 Oeste 9 Noroeste 0 -- -- 95
2019-11-16 23:00:00 4.7 4 Oeste 10 Oeste 0 -- -- 94
2019-11-16 22:00:00 5.4 7 Noroeste 13 Noroeste 0 -- -- 92
2019-11-16 21:00:00 6.4 4 Noroeste 13 Noroeste 0 -- -- 89
2019-11-16 20:00:00 7.6 4 Noroeste 9 Noroeste 0 -- -- 86
2019-11-16 19:00:00 8.3 3 Noroeste 8 Norte 0 -- -- 83
2019-11-16 18:00:00 8.2 0 Calma 9 Este 0 -- -- 81
2019-11-16 17:00:00 10.5 5 Sudeste 14 Este 0 -- -- 73
2019-11-16 16:00:00 12.4 5 Este 12 Sudeste 0 -- -- 63
2019-11-16 15:00:00 13 5 Este 13 Este 0 -- -- 58
2019-11-16 14:00:00 12.6 4 Este 12 Sudeste 0 -- -- 58
2019-11-16 13:00:00 12 6 Sudeste 12 Este 0 -- -- 62
2019-11-16 12:00:00 9.9 0 Calma 9 Sur 0 -- -- 70
2019-11-16 11:00:00 7.7 4 Oeste 8 Oeste 0 -- -- 81
2019-11-16 10:00:00 4.7 4 Oeste 8 Oeste 0 -- -- 100
2019-11-16 09:00:00 1.9 3 Oeste 6 Sudoeste 0 -- -- 100
2019-11-16 08:00:00 1 3 Sudeste 8 Sudoeste 0 -- -- 100
2019-11-16 07:00:00 1.1 0 Calma 6 Oeste 0 -- -- 100
2019-11-16 06:00:00 1.4 0 Calma 8 Sudoeste 0 -- -- 100
2019-11-16 05:00:00 1.9 0 Calma 6 Sudoeste 0 -- -- 99
2019-11-16 04:00:00 2.6 0 Calma 12 Oeste 0 -- -- 97
2019-11-16 03:00:00 3.3 4 Oeste 11 Oeste 0 -- -- 96
2019-11-16 02:00:00 3.4 4 Oeste 6 Oeste 0 -- -- 96
2019-11-16 01:00:00 4.4 2 Noroeste 9 Noroeste 0 -- -- 91
2019-11-16 00:00:00 5.3 3 Oeste 12 Oeste 0 -- -- 90
2019-11-15 23:00:00 6.9 3 Noroeste 19 Norte 0 -- -- 84
2019-11-15 22:00:00 7.7 8 Norte 28 Noroeste 0 -- -- 85
2019-11-15 21:00:00 7.6 14 Noroeste 24 Noroeste 0 -- -- 92
2019-11-15 20:00:00 7 7 Noroeste 12 Noroeste 0 -- -- 95
2019-11-15 19:00:00 8.2 4 Norte 6 Noroeste 0 -- -- 91
2019-11-15 18:00:00 9.6 0 Calma 6 Sur 0 -- -- 89
2019-11-15 17:00:00 10.6 5 Sudeste 16 Sur 0 -- -- 80
2019-11-15 16:00:00 11.1 8 Sudeste 17 Sudeste 0 -- -- 81
2019-11-15 15:00:00 11.1 9 Sur 17 Sur 0 -- -- 78
2019-11-15 14:00:00 10.5 4 Sur 8 Sur 0 -- -- 82
2019-11-15 13:00:00 9.9 3 Sudoeste 8 Noroeste 0 -- -- 83
2019-11-15 12:00:00 8.8 3 Norte 6 Noroeste 0 -- -- 91
2019-11-15 11:00:00 6.9 3 Oeste 8 Oeste 0.2 -- -- 100
2019-11-15 10:00:00 5.1 0 Calma 10 Noroeste 0 -- -- 100
2019-11-15 09:00:00 4.1 4 Noroeste 10 Oeste 0 -- -- 100
2019-11-15 08:00:00 2.9 5 Oeste 10 Oeste 0 -- -- 100
2019-11-15 07:00:00 2.4 5 Oeste 9 Sudoeste 0 -- -- 100
2019-11-15 06:00:00 2.5 4 Oeste 10 Oeste 0 -- -- 100
2019-11-15 05:00:00 2.2 4 Oeste 8 Noroeste 0 -- -- 100
2019-11-15 04:00:00 2.4 4 Noroeste 9 Noroeste 0 -- -- 100
2019-11-15 03:00:00 2.5 5 Oeste 8 Oeste 0 -- -- 100
2019-11-15 02:00:00 2.9 4 Noroeste 8 Oeste 0 -- -- 100
2019-11-15 01:00:00 3.7 3 Oeste 8 Noroeste 0 -- -- 100
2019-11-15 00:00:00 3.9 3 Oeste 8 Sudoeste 0 -- -- 100
2019-11-14 23:00:00 3.9 0 Calma -- -- 0 -- -- 98
2019-11-14 22:00:00 5.3 0 Calma 7 Sudoeste 0 -- -- 96
2019-11-14 21:00:00 6.6 2 Sudoeste 14 Noroeste 0 -- -- 90
2019-11-14 20:00:00 6.9 9 Noroeste 24 Noroeste 0.2 -- -- 87
2019-11-14 19:00:00 7 6 Noroeste 13 Noroeste 0 -- -- 90
2019-11-14 18:00:00 6.9 7 Noroeste 18 Noroeste 0 -- -- 93
2019-11-14 17:00:00 7 4 Noroeste 9 Noroeste 0.2 -- -- 97
2019-11-14 16:00:00 7.2 3 Oeste 12 Noroeste 0.6 -- -- 95
2019-11-14 15:00:00 7.3 7 Noroeste 14 Norte 1.8 -- -- 95
2019-11-14 14:00:00 7.4 12 Noroeste 31 Noroeste 1 -- -- 91
2019-11-14 13:00:00 10 8 Noroeste 14 Noroeste 0 -- -- 82
2019-11-14 12:00:00 10.4 5 Noroeste 22 Norte 0 -- -- 80
2019-11-14 11:00:00 9.6 13 Noroeste 26 Norte 0.4 -- -- 84
2019-11-14 10:00:00 10 6 Noroeste 14 Noroeste 0 -- -- 83
2019-11-14 09:00:00 9.3 8 Noroeste 13 Oeste 0 -- -- 89
2019-11-14 08:00:00 9.2 4 Noroeste 8 Norte 0 -- -- 85
2019-11-14 07:00:00 9.5 4 Sur 14 Sur 0 -- -- 82
2019-11-14 06:00:00 8.8 7 Sudeste 14 Sur 0 -- -- 83
2019-11-14 05:00:00 7.5 5 Sur 10 Sur 0 -- -- 93
2019-11-14 04:00:00 7.4 0 Calma 0 Calma 0 -- -- 91
2019-11-14 03:00:00 8.1 0 Calma 0 Calma 0 -- -- 87
2019-11-14 02:00:00 8.5 0 Calma -- -- 0 -- -- 87
2019-11-14 01:00:00 8.2 0 Calma -- -- 0 -- -- 88
2019-11-14 00:00:00 8.5 0 Calma -- -- 0 -- -- 84
2019-11-13 23:00:00 7.9 0 Calma 5 Sur 0 -- -- 82
2019-11-13 22:00:00 9 3 Sudoeste 8 Sudoeste 0 -- -- 74
2019-11-13 21:00:00 10.7 3 Sudoeste 8 Noroeste 0 -- -- 66
2019-11-13 20:00:00 11.1 5 Norte 19 Norte 0 -- -- 63
2019-11-13 19:00:00 11.9 10 Noroeste 25 Noroeste 0 -- -- 57
2019-11-13 18:00:00 12 15 Noroeste 31 Norte 0 -- -- 58
2019-11-13 17:00:00 12.6 17 Noroeste 39 Norte 0 -- -- 61
2019-11-13 16:00:00 13.6 18 Noroeste 43 Norte 0 -- -- 60
2019-11-13 15:00:00 14.3 26 Norte 41 Norte 0 -- -- 59
2019-11-13 14:00:00 14.3 22 Norte 35 Noroeste 0 -- -- 61
2019-11-13 13:00:00 13.8 15 Norte 36 Norte 0 -- -- 62
2019-11-13 12:00:00 13.7 15 Norte 26 Norte 0 -- -- 62
2019-11-13 11:00:00 12.1 5 Oeste 21 Noroeste 0 -- -- 69
2019-11-13 10:00:00 11.9 8 Noroeste 17 Norte 0 -- -- 72
2019-11-13 09:00:00 9.5 8 Norte 15 Noroeste 0 -- -- 82
2019-11-13 08:00:00 7.4 7 Norte 12 Noroeste 0 -- -- 88
2019-11-13 07:00:00 5.8 6 Noroeste 11 Noroeste 0 -- -- 99
2019-11-13 06:00:00 4.7 5 Noroeste 8 Noroeste 0 -- -- 96
2019-11-13 05:00:00 5 4 Noroeste 6 Norte 0 -- -- 93
2019-11-13 04:00:00 5.6 3 Oeste 12 Oeste 0 -- -- 93
2019-11-13 03:00:00 5.7 5 Sudoeste 12 Sudoeste 0 -- -- 91
2019-11-13 02:00:00 6.8 5 Sudoeste 9 Sudoeste 0 -- -- 85
2019-11-13 01:00:00 8.5 6 Noroeste 13 Norte 0 -- -- 83
2019-11-13 00:00:00 8.6 3 Oeste 13 Sudoeste 0 -- -- 81
2019-11-12 23:00:00 9.5 6 Noroeste 18 Sudoeste 0 -- -- 77
2019-11-12 22:00:00 8.8 5 Oeste 9 Oeste 0 -- -- 78
2019-11-12 21:00:00 10.2 5 Oeste 11 Oeste 0 -- -- 69
2019-11-12 20:00:00 11.8 4 Noroeste 14 Noroeste 0 -- -- 61
2019-11-12 19:00:00 12.8 7 Noroeste 32 Noroeste 0 -- -- 57
2019-11-12 18:00:00 13.3 17 Norte 26 Norte 0 -- -- 55
2019-11-12 17:00:00 15.5 4 Noroeste 22 Noroeste 0 -- -- 49
2019-11-12 16:00:00 17.6 7 Noroeste 34 Noroeste 0 -- -- 42
2019-11-12 15:00:00 17.6 9 Noroeste 41 Noroeste 0 -- -- 43
2019-11-12 14:00:00 17.2 14 Noroeste 35 Noroeste 0 -- -- 44
2019-11-12 13:00:00 16.4 16 Norte 44 Noroeste 0 -- -- 45
2019-11-12 12:00:00 15.5 23 Norte 49 Norte 0 -- -- 46
2019-11-12 11:00:00 14.7 20 Noroeste 50 Norte 0 -- -- 49
2019-11-12 10:00:00 13.6 19 Noroeste 43 Noroeste 0 -- -- 49
2019-11-12 09:00:00 12.5 24 Noroeste 51 Noroeste 0 -- -- 54
2019-11-12 08:00:00 12 25 Noroeste 54 Noroeste 0 -- -- 51
2019-11-12 07:00:00 11.3 21 Noroeste 50 Norte 0 -- -- 54
2019-11-12 06:00:00 11.1 26 Noroeste 48 Noroeste 0 -- -- 58
2019-11-12 05:00:00 11.3 26 Noroeste 53 Noroeste 0 -- -- 57
2019-11-12 04:00:00 11.1 25 Norte 54 Norte 0 -- -- 57
2019-11-12 03:00:00 11.1 28 Norte 71 Norte 0 -- -- 57
2019-11-12 02:00:00 11.2 37 Norte 61 Norte 0 -- -- 60
2019-11-12 01:00:00 11 29 Norte 63 Norte 0 -- -- 60
2019-11-12 00:00:00 11.4 39 Norte 72 Norte 0 -- -- 58
2019-11-11 23:00:00 12.7 37 Noroeste 75 Norte 0 -- -- 39
2019-11-11 22:00:00 13.3 31 Noroeste 64 Norte 0 -- -- 39
2019-11-11 21:00:00 13.9 15 Noroeste 39 Norte 0 -- -- 48
2019-11-11 20:00:00 13.6 12 Oeste 26 Oeste 0 -- -- 59
2019-11-11 19:00:00 13 6 Sudeste 14 Noroeste 0 -- -- 56
2019-11-11 18:00:00 12.5 7 Norte 16 Noroeste 0 -- -- 59
2019-11-11 17:00:00 13.5 6 Norte 14 Nordeste 0 -- -- 60
2019-11-11 16:00:00 15.4 9 Nordeste 25 Nordeste 0 -- -- 55
2019-11-11 15:00:00 15.9 14 Nordeste 27 Nordeste 0 -- -- 48
2019-11-11 14:00:00 15.9 12 Nordeste 25 Norte 0 -- -- 45
2019-11-11 13:00:00 15.9 12 Norte 25 Norte 0 -- -- 40
2019-11-11 12:00:00 15.1 15 Norte 26 Noroeste 0 -- -- 43
2019-11-11 11:00:00 13.5 14 Norte 28 Norte 0 -- -- 47
2019-11-11 10:00:00 12.5 14 Norte 28 Norte 0 -- -- 45
2019-11-11 09:00:00 11.9 13 Norte 28 Norte 0 -- -- 45
2019-11-11 08:00:00 11.1 17 Norte 29 Norte 0 -- -- 46
2019-11-11 07:00:00 10.9 17 Norte 33 Norte 0 -- -- 48
2019-11-11 06:00:00 10.6 21 Norte 35 Norte 0 -- -- 51
2019-11-11 05:00:00 10 20 Norte 41 Noroeste 0 -- -- 52
2019-11-11 04:00:00 9.8 19 Norte 49 Norte 0 -- -- 56
2019-11-11 03:00:00 10 34 Norte 54 Noroeste 0 -- -- 56
2019-11-11 02:00:00 9.7 24 Norte 41 Norte 0 -- -- 58
2019-11-11 01:00:00 9.5 20 Norte 40 Noroeste 0 -- -- 59
2019-11-11 00:00:00 9.5 20 Norte 44 Norte 0 -- -- 63